Sunday, April 22, 2018, 9:54 PM EDT
Back to Local

KFZY, Fulton Oswego County Airport

Location: Fulton, NY, United States Lat: 43.35
Local Time: 9:54 PM EDT ( 1:54 GMT) Lon: -76.383
Time Zone: US/Eastern Elev: 475 ft

Show me the last for .
Show Decoded

2018-04-22 20:54 METAR KFZY 230054Z AUTO 00000KT 10SM CLR 08/M06 A3041 RMK AO2 SLP301 T00781056 =
2018-04-22 19:54 METAR KFZY 222354Z AUTO 31004KT 10SM CLR 10/M08 A3039 RMK AO2 SLP293 T01001078
                 10144 20100 55000 =
2018-04-22 18:54 METAR KFZY 222254Z AUTO 30004KT 10SM CLR 13/M08 A3038 RMK AO2 SLP291 T01281078 =
2018-04-22 17:54 METAR KFZY 222154Z AUTO 31004KT 10SM CLR 14/M09 A3039 RMK AO2 SLP293 T01391089 =
2018-04-22 16:54 METAR KFZY 222054Z AUTO 29007KT 10SM CLR 13/M09 A3039 RMK AO2 SLP293 T01331089
                 56011 =
2018-04-22 15:54 METAR KFZY 221954Z AUTO 34006KT 10SM CLR 14/M09 A3040 RMK AO2 SLP296 T01391089 =
2018-04-22 14:54 METAR KFZY 221854Z AUTO 31010G15KT 10SM CLR 13/M07 A3041 RMK AO2 SLP301
                 T01331067 =
2018-04-22 13:54 METAR KFZY 221754Z AUTO 29009KT 10SM CLR 13/M05 A3042 RMK AO2 SLP305 T01331050
                 10144 20039 58007 =
2018-04-22 12:54 METAR KFZY 221654Z AUTO 29009KT 10SM CLR 13/M05 A3044 RMK AO2 SLP309 T01281050 =
2018-04-22 11:54 METAR KFZY 221554Z AUTO 29008KT 10SM CLR 13/M03 A3045 RMK AO2 SLP313 T01281033 =
2018-04-22 10:54 METAR KFZY 221454Z AUTO 24005KT 10SM CLR 11/M04 A3045 RMK AO2 SLP312 T01111039
                 51006 =
2018-04-22 09:54 METAR KFZY 221354Z AUTO 25004KT 10SM CLR 09/M02 A3044 RMK AO2 SLP312 T00891022 =
2018-04-22 08:54 METAR KFZY 221254Z AUTO 27003KT 10SM CLR 06/M03 A3043 RMK AO2 SLP309 T00561028 =
2018-04-22 07:54 METAR KFZY 221154Z AUTO 00000KT 10SM CLR 04/M03 A3043 RMK AO2 SLP307 T00391028
                 10039 21022 53015 =
2018-04-22 06:54 METAR KFZY 221054Z AUTO 00000KT 10SM CLR M02/M03 A3041 RMK AO2 SLP301 T10171033
                 =
2018-04-22 05:54 METAR KFZY 220954Z AUTO 00000KT 10SM CLR M01/M03 A3039 RMK AO2 SLP293 T10061033
                 =
2018-04-22 04:54 METAR KFZY 220854Z AUTO 00000KT 10SM CLR 02/M03 A3038 RMK AO2 SLP292 T00171028
                 58002 =
2018-04-22 03:54 METAR KFZY 220754Z AUTO 28003KT 10SM CLR 02/M03 A3039 RMK AO2 SLP293 T00221028 =
2018-04-22 02:54 METAR KFZY 220654Z AUTO 30003KT 10SM CLR 02/M03 A3039 RMK AO2 SLP293 T00171028 =
2018-04-22 01:54 METAR KFZY 220554Z AUTO 25003KT 10SM CLR 01/M04 A3039 RMK AO2 SLP294 T00061039
                 10072 21006 53004 =
2018-04-22 00:54 METAR KFZY 220454Z AUTO 00000KT 10SM CLR 01/M04 A3038 RMK AO2 SLP293 T00111044
                 401111011 =
2018-04-21 23:54 METAR KFZY 220354Z AUTO 26004KT 10SM CLR 04/M06 A3037 RMK AO2 SLP289 T00391056 =
2018-04-21 22:54 METAR KFZY 220254Z AUTO 00000KT 10SM CLR 04/M06 A3038 RMK AO2 SLP290 T00441056
                 53003 =

Support USWX by starting your Amazon purchase here.